Waddams Grove, Illinois
Current Conditions -  °F | °C
As of 8:35 PM on Friday 28 Nov 2014 (Local Time) from KFEP Reporting Station
Clear Clear  
Wind Chill: 25°   Ceiling: Unl
Heat Index: 31°   Visibility: 7mi
Dew Point: 29°   Wind: 7mph
Humidity: 90%   Direction: 150°SSE
Pressure: 29.89"   Gusts: NA
Location:  42.3875°N, 89.8373°W
Report Text: KFEP 290235Z AUTO 15006KT 7SM CLR 00/M02 A2989 RMK AO2 T10041018
Loading
Personal Weather Stations






























Interactive Weather Map New forecast layout! Learn more

10-Day Weather Forecast

Advertisements
Track Severe Weather on mobile